Time;durP1;ratioP1;P1;durP2;ratioP2;P2;SDS_P1;SDS_P2;PMS_P1;PMS_P2;Temp;Humidity;BMP_temperature;BMP_pressure;BME280_temperature;BME280_humidity;BME280_pressure;Samples;Min_cycle;Max_cycle;Signal;HPM_P1;HPM_P2
2023/08/04 00:00:06;;;;;;;2.65;1.90;;;22.40;67.70;;;;;;6092942;23;92535;-92
2023/08/04 00:02:32;;;;;;;2.58;1.73;;;22.30;67.60;;;;;;6093098;23;99522;-92
2023/08/04 00:04:58;;;;;;;3.47;1.75;;;22.30;67.80;;;;;;6093145;23;95180;-91
2023/08/04 00:07:23;;;;;;;2.92;1.50;;;22.30;67.60;;;;;;6093409;23;92536;-92
2023/08/04 00:09:49;;;;;;;1.90;1.58;;;22.30;67.60;;;;;;6121216;23;92159;-92
2023/08/04 00:12:15;;;;;;;2.42;1.70;;;22.40;67.40;;;;;;6090815;23;96499;-91
2023/08/04 00:14:40;;;;;;;2.42;1.52;;;22.30;67.50;;;;;;6092084;23;95726;-91
2023/08/04 00:17:06;;;;;;;2.25;1.52;;;22.30;67.40;;;;;;6093241;23;92291;-92
2023/08/04 00:19:32;;;;;;;1.65;1.40;;;22.30;67.30;;;;;;6092011;23;92645;-91
2023/08/04 00:21:57;;;;;;;1.92;1.40;;;22.30;67.60;;;;;;6119556;22;93212;-91
2023/08/04 00:24:23;;;;;;;1.88;1.67;;;22.30;67.80;;;;;;6093015;23;95211;-92
2023/08/04 00:26:48;;;;;;;4.22;2.25;;;22.20;67.80;;;;;;6092668;23;92227;-93
2023/08/04 00:29:14;;;;;;;1.85;1.50;;;22.30;67.80;;;;;;6118131;22;91869;-93
2023/08/04 00:31:40;;;;;;;2.17;1.63;;;22.20;67.80;;;;;;6118908;22;93600;-91
2023/08/04 00:34:05;;;;;;;2.53;1.85;;;22.20;67.80;;;;;;6092726;23;94634;-91
2023/08/04 00:36:31;;;;;;;2.53;1.63;;;22.30;68.00;;;;;;6092842;23;94212;-91
2023/08/04 00:38:57;;;;;;;2.38;1.80;;;22.30;67.80;;;;;;6091047;23;92537;-92
2023/08/04 00:41:22;;;;;;;2.35;1.73;;;22.20;67.90;;;;;;6091251;23;95866;-91
2023/08/04 00:43:48;;;;;;;2.55;1.88;;;22.30;67.70;;;;;;6091762;23;93643;-92
2023/08/04 00:46:15;;;;;;;2.05;1.40;;;22.30;67.90;;;;;;6092222;23;91990;-92
2023/08/04 00:48:41;;;;;;;1.77;1.48;;;22.20;67.70;;;;;;6116833;23;92462;-93
2023/08/04 00:51:06;;;;;;;3.42;1.80;;;22.20;68.00;;;;;;6091864;23;94393;-92
2023/08/04 00:53:32;;;;;;;2.00;1.80;;;22.20;67.90;;;;;;6092269;23;94948;-92
2023/08/04 00:55:58;;;;;;;2.45;1.70;;;22.20;68.00;;;;;;6093117;23;92265;-90
2023/08/04 00:58:23;;;;;;;2.30;1.50;;;22.20;67.90;;;;;;6092047;23;92381;-91
2023/08/04 01:00:49;;;;;;;2.03;1.80;;;22.20;67.90;;;;;;6091978;23;96560;-91
2023/08/04 01:03:15;;;;;;;2.03;1.65;;;22.20;68.00;;;;;;6092048;23;95195;-92
2023/08/04 01:05:51;;;;;;;2.05;1.35;;;22.20;67.70;;;;;;6119083;23;91936;-93
2023/08/04 01:08:25;;;;;;;2.20;1.73;;;22.10;67.90;;;;;;6092705;23;92847;-93
2023/08/04 01:11:14;;;;;;;2.10;1.70;;;22.20;67.80;;;;;;6116899;22;94258;-92
2023/08/04 01:13:43;;;;;;;2.05;1.85;;;22.20;67.90;;;;;;6091319;23;95266;-92
2023/08/04 01:16:09;;;;;;;2.97;1.30;;;22.10;67.90;;;;;;6092734;23;92763;-90
2023/08/04 01:18:34;;;;;;;2.20;1.70;;;22.20;67.70;;;;;;6092690;23;91624;-92
2023/08/04 01:21:04;;;;;;;1.90;1.58;;;22.10;68.00;;;;;;6118981;22;92865;-92
2023/08/04 01:23:30;;;;;;;1.55;1.30;;;22.10;67.90;;;;;;6092271;23;94090;-93
2023/08/04 01:25:56;;;;;;;2.00;1.55;;;22.10;67.90;;;;;;6091032;23;93439;-92
2023/08/04 01:28:24;;;;;;;1.50;1.40;;;22.10;68.00;;;;;;6118420;23;92178;-93
2023/08/04 01:30:53;;;;;;;1.73;1.45;;;22.10;67.80;;;;;;6119794;22;93160;-92
2023/08/04 01:33:19;;;;;;;2.15;1.52;;;22.10;67.70;;;;;;6119585;23;96013;-92
2023/08/04 01:35:44;;;;;;;2.30;1.55;;;22.10;67.90;;;;;;6093207;23;92249;-93
2023/08/04 01:38:10;;;;;;;2.45;1.60;;;22.10;68.00;;;;;;6091751;23;93009;-93
2023/08/04 01:40:36;;;;;;;2.70;2.00;;;22.10;67.90;;;;;;6091580;22;95116;-92
2023/08/04 01:43:04;;;;;;;2.67;1.80;;;22.10;67.90;;;;;;6092545;22;95003;-92
2023/08/04 01:45:30;;;;;;;2.47;1.70;;;22.10;68.00;;;;;;6120140;23;92437;-91
2023/08/04 01:47:55;;;;;;;1.95;1.60;;;22.10;67.80;;;;;;6091785;23;92299;-94
2023/08/04 01:50:21;;;;;;;2.28;2.05;;;22.10;67.80;;;;;;6091733;22;96192;-91
2023/08/04 01:52:47;;;;;;;3.33;1.55;;;22.10;67.80;;;;;;6092114;23;95221;-93
2023/08/04 01:55:12;;;;;;;3.05;1.70;;;22.10;67.60;;;;;;6092547;23;92398;-93
2023/08/04 01:57:38;;;;;;;1.90;1.50;;;22.10;67.80;;;;;;6092818;23;92104;-93
2023/08/04 02:00:05;;;;;;;3.17;1.80;;;22.10;67.70;;;;;;6090399;23;94519;-92
2023/08/04 02:02:31;;;;;;;2.15;1.50;;;22.10;67.80;;;;;;6117863;22;91975;-93
2023/08/04 02:04:56;;;;;;;2.53;1.90;;;22.10;67.60;;;;;;6092227;23;92573;-93
2023/08/04 02:07:22;;;;;;;3.38;1.42;;;22.00;67.80;;;;;;6092827;23;91701;-92
2023/08/04 02:09:48;;;;;;;2.67;1.50;;;22.00;67.80;;;;;;6118748;23;94326;-92
2023/08/04 02:12:13;;;;;;;2.33;1.67;;;22.00;68.00;;;;;;6092073;23;94440;-92
2023/08/04 02:14:39;;;;;;;2.65;1.15;;;22.00;67.90;;;;;;6092450;23;93338;-91
2023/08/04 02:17:05;;;;;;;2.08;1.63;;;22.00;68.00;;;;;;6092095;23;92388;-91
2023/08/04 02:19:30;;;;;;;2.25;1.60;;;22.00;67.80;;;;;;6091579;23;95537;-93
2023/08/04 02:21:56;;;;;;;1.70;1.52;;;22.00;67.70;;;;;;6091425;23;95292;-93
2023/08/04 02:24:22;;;;;;;3.22;1.73;;;22.00;67.80;;;;;;6093162;23;92208;-92
2023/08/04 02:26:47;;;;;;;2.28;1.55;;;22.00;67.70;;;;;;6091841;23;91873;-92
2023/08/04 02:29:13;;;;;;;2.72;1.65;;;22.00;67.70;;;;;;6091678;23;94683;-91
2023/08/04 02:31:41;;;;;;;2.75;1.30;;;22.00;67.60;;;;;;6090718;23;95014;-92
2023/08/04 02:34:07;;;;;;;2.63;1.80;;;22.00;67.70;;;;;;6091406;23;98864;-93
2023/08/04 02:36:33;;;;;;;1.55;1.40;;;22.00;67.70;;;;;;6092598;23;92542;-92
2023/08/04 02:38:59;;;;;;;1.98;1.40;;;22.00;67.40;;;;;;6115962;22;96084;-92
2023/08/04 02:41:24;;;;;;;1.55;1.45;;;21.90;67.40;;;;;;6091577;23;96336;-92
2023/08/04 02:43:50;;;;;;;1.88;1.45;;;21.90;67.50;;;;;;6092121;23;92740;-92
2023/08/04 02:46:16;;;;;;;1.70;1.50;;;21.90;67.90;;;;;;6092151;23;92266;-93
2023/08/04 02:48:41;;;;;;;1.50;1.40;;;22.00;67.70;;;;;;6092287;23;95494;-91
2023/08/04 02:51:10;;;;;;;2.08;1.52;;;22.00;67.80;;;;;;6090296;23;95365;-93
2023/08/04 02:53:42;;;;;;;1.58;1.40;;;21.90;67.60;;;;;;6091320;23;92304;-94
2023/08/04 02:56:13;;;;;;;2.00;1.50;;;21.90;67.20;;;;;;6092343;23;91208;-91
2023/08/04 02:58:41;;;;;;;1.45;1.20;;;22.00;67.60;;;;;;6090730;23;94554;-91
2023/08/04 03:01:06;;;;;;;1.75;1.60;;;21.90;67.50;;;;;;6091089;23;93877;-92
2023/08/04 03:03:32;;;;;;;1.60;1.40;;;21.90;67.50;;;;;;6092367;23;93748;-92
2023/08/04 03:05:59;;;;;;;2.83;1.50;;;21.90;67.60;;;;;;6091271;23;92124;-92
2023/08/04 03:08:26;;;;;;;1.60;1.40;;;21.90;67.80;;;;;;6090918;23;94652;-92
2023/08/04 03:10:51;;;;;;;1.70;1.40;;;21.90;67.80;;;;;;6090838;23;95101;-90
2023/08/04 03:13:17;;;;;;;1.70;1.50;;;21.90;68.00;;;;;;6092698;23;92175;-90
2023/08/04 03:15:42;;;;;;;2.92;1.65;;;21.90;67.90;;;;;;6120418;23;92337;-92
2023/08/04 03:18:08;;;;;;;1.60;1.40;;;21.90;67.70;;;;;;6093013;23;95480;-90
2023/08/04 03:20:40;;;;;;;1.70;1.42;;;21.90;67.60;;;;;;6093073;22;94681;-91
2023/08/04 03:23:06;;;;;;;1.75;1.40;;;22.00;67.60;;;;;;6119210;23;92533;-92
2023/08/04 03:25:33;;;;;;;2.08;1.40;;;21.90;67.70;;;;;;6092145;23;98318;-92
2023/08/04 03:27:59;;;;;;;1.52;1.33;;;21.90;67.70;;;;;;6092051;23;96326;-91
2023/08/04 03:30:25;;;;;;;1.52;1.42;;;21.90;67.50;;;;;;6092576;22;95225;-91
2023/08/04 03:32:50;;;;;;;2.45;1.42;;;22.00;67.50;;;;;;6118921;23;92218;-89
2023/08/04 03:35:16;;;;;;;1.40;1.30;;;21.90;67.50;;;;;;6091918;23;92456;-92
2023/08/04 03:37:42;;;;;;;1.77;1.40;;;21.90;67.60;;;;;;6091986;23;95222;-92
2023/08/04 03:40:09;;;;;;;2.15;1.38;;;21.90;67.40;;;;;;6092725;23;95697;-92
2023/08/04 03:42:38;;;;;;;1.65;1.55;;;21.90;67.40;;;;;;6093477;23;92394;-92
2023/08/04 03:45:07;;;;;;;1.40;1.30;;;22.00;67.20;;;;;;6093790;23;92020;-92
2023/08/04 03:47:34;;;;;;;2.30;1.60;;;21.90;67.10;;;;;;6092366;23;95575;-91
2023/08/04 03:50:04;;;;;;;1.65;1.30;;;22.00;67.20;;;;;;6092242;23;93623;-92
2023/08/04 03:52:30;;;;;;;1.40;1.17;;;21.90;67.20;;;;;;6091823;23;93503;-92
2023/08/04 03:54:57;;;;;;;1.80;1.33;;;21.90;67.00;;;;;;6078543;23;91884;-92
2023/08/04 03:57:22;;;;;;;2.47;1.70;;;22.00;67.40;;;;;;6117662;23;92593;-92
2023/08/04 03:59:49;;;;;;;2.13;1.67;;;21.90;67.30;;;;;;6092039;23;93501;-92
2023/08/04 04:02:15;;;;;;;1.85;1.20;;;21.90;67.40;;;;;;6092188;23;92441;-92
2023/08/04 04:04:41;;;;;;;1.73;1.30;;;21.90;67.30;;;;;;6092939;23;92962;-92
2023/08/04 04:07:07;;;;;;;2.50;1.52;;;21.90;67.00;;;;;;6117978;23;93072;-91
2023/08/04 04:09:32;;;;;;;1.65;1.30;;;22.00;67.00;;;;;;6093081;23;95189;-93
2023/08/04 04:11:58;;;;;;;1.77;1.38;;;21.90;66.90;;;;;;6092452;23;92042;-92
2023/08/04 04:14:24;;;;;;;1.75;1.40;;;22.00;67.10;;;;;;6091804;23;92328;-92
2023/08/04 04:16:49;;;;;;;1.55;1.38;;;22.00;67.00;;;;;;6092440;23;97058;-92
2023/08/04 04:19:15;;;;;;;1.52;1.27;;;22.00;66.90;;;;;;6074911;22;95055;-92
2023/08/04 04:21:40;;;;;;;1.70;1.25;;;22.00;66.60;;;;;;6115833;22;93251;-92
2023/08/04 04:24:06;;;;;;;1.85;1.42;;;22.00;66.70;;;;;;6079375;23;92375;-91
2023/08/04 04:26:32;;;;;;;1.75;1.30;;;22.00;66.60;;;;;;6091327;23;94372;-91
2023/08/04 04:28:57;;;;;;;1.80;1.45;;;22.00;66.70;;;;;;6091136;23;94911;-91
2023/08/04 04:31:23;;;;;;;1.70;1.33;;;22.00;66.90;;;;;;6118637;22;92100;-92
2023/08/04 04:33:49;;;;;;;1.52;1.23;;;22.00;66.80;;;;;;6092631;23;91517;-92
2023/08/04 04:36:14;;;;;;;1.95;1.60;;;22.00;66.90;;;;;;6090546;23;95211;-89
2023/08/04 04:38:40;;;;;;;1.60;1.40;;;22.10;66.60;;;;;;6091545;23;95610;-92
2023/08/04 04:41:06;;;;;;;1.67;1.40;;;22.00;66.40;;;;;;6092216;23;93487;-90
2023/08/04 04:43:32;;;;;;;1.50;1.40;;;22.00;66.40;;;;;;6090651;23;92402;-92
2023/08/04 04:45:58;;;;;;;1.77;1.45;;;22.00;66.60;;;;;;6090911;23;95184;-93
2023/08/04 04:48:24;;;;;;;1.88;1.30;;;22.00;66.70;;;;;;6091273;23;94547;-92
2023/08/04 04:50:51;;;;;;;1.63;1.15;;;22.00;66.70;;;;;;6091020;23;92191;-91
2023/08/04 04:53:17;;;;;;;1.75;1.63;;;22.00;66.50;;;;;;6090247;23;92540;-91
2023/08/04 04:55:43;;;;;;;1.65;1.38;;;22.00;66.70;;;;;;6091058;23;94920;-91
2023/08/04 04:58:08;;;;;;;1.55;1.20;;;22.00;66.90;;;;;;6090848;23;94892;-92
2023/08/04 05:00:35;;;;;;;2.17;1.38;;;22.00;66.70;;;;;;6093343;22;92229;-92
2023/08/04 05:03:04;;;;;;;1.35;1.25;;;22.00;66.60;;;;;;6092636;23;92485;-91
2023/08/04 05:05:31;;;;;;;1.42;1.00;;;22.00;66.30;;;;;;6091092;23;96645;-89
2023/08/04 05:07:56;;;;;;;2.28;1.75;;;22.00;66.40;;;;;;6104603;22;96091;-91
2023/08/04 05:10:22;;;;;;;1.60;1.25;;;22.10;66.40;;;;;;6091960;23;92370;-93
2023/08/04 05:12:48;;;;;;;1.30;1.08;;;22.00;66.10;;;;;;6092827;23;92348;-89
2023/08/04 05:15:13;;;;;;;1.20;1.10;;;22.00;66.20;;;;;;6091510;23;95224;-93
2023/08/04 05:17:39;;;;;;;1.88;1.27;;;22.00;66.20;;;;;;6091773;23;94897;-92
2023/08/04 05:20:06;;;;;;;1.55;1.38;;;22.00;66.10;;;;;;6105394;22;92401;-92
2023/08/04 05:22:32;;;;;;;1.58;1.48;;;22.00;65.90;;;;;;6092482;23;91920;-91
2023/08/04 05:24:57;;;;;;;1.38;1.27;;;22.00;65.90;;;;;;6090946;23;95875;-91
2023/08/04 05:27:23;;;;;;;1.80;1.48;;;22.00;66.10;;;;;;6118362;23;92817;-91
2023/08/04 05:29:49;;;;;;;2.25;1.55;;;22.10;66.10;;;;;;6090758;23;93000;-92
2023/08/04 05:32:15;;;;;;;1.42;1.33;;;22.10;66.10;;;;;;6090204;23;92914;-92
2023/08/04 05:34:40;;;;;;;1.98;1.40;;;22.00;66.00;;;;;;6089842;23;95094;-92
2023/08/04 05:37:06;;;;;;;2.22;1.50;;;22.10;65.80;;;;;;6090117;23;95531;-92
2023/08/04 05:39:38;;;;;;;1.40;1.30;;;22.10;65.90;;;;;;6092087;23;92577;-92
2023/08/04 05:42:03;;;;;;;1.30;1.20;;;22.10;65.70;;;;;;6091389;23;92308;-91
2023/08/04 05:44:29;;;;;;;2.13;1.30;;;22.10;65.70;;;;;;6114189;22;95410;-88
2023/08/04 05:46:55;;;;;;;2.10;1.58;;;22.10;65.80;;;;;;6074193;23;95124;-90
2023/08/04 05:49:21;;;;;;;3.17;1.48;;;22.00;65.10;;;;;;6087297;23;92324;-87
2023/08/04 05:51:47;;;;;;;2.13;1.70;;;22.00;64.80;;;;;;6109177;22;92452;-86
2023/08/04 05:54:12;;;;;;;2.92;1.70;;;22.00;65.40;;;;;;6109884;23;93976;-87
2023/08/04 05:56:38;;;;;;;3.50;1.35;;;21.90;65.30;;;;;;6110076;23;94137;-85
2023/08/04 05:59:04;;;;;;;1.95;1.60;;;22.00;65.70;;;;;;6108124;22;92435;-86
2023/08/04 06:01:29;;;;;;;2.17;1.80;;;22.00;65.80;;;;;;6081654;23;92745;-85
2023/08/04 06:03:55;;;;;;;4.93;1.90;;;22.00;65.90;;;;;;6108982;23;93291;-85
2023/08/04 06:06:21;;;;;;;5.05;2.10;;;21.90;65.90;;;;;;6082482;23;94936;-88
2023/08/04 06:08:47;;;;;;;3.33;1.73;;;22.00;65.90;;;;;;6109837;23;91893;-87
2023/08/04 06:11:14;;;;;;;4.43;2.55;;;22.00;65.40;;;;;;6112813;22;91947;-89
2023/08/04 06:13:40;;;;;;;4.35;2.70;;;21.90;64.50;;;;;;6087891;23;95680;-89
2023/08/04 06:16:06;;;;;;;5.05;2.38;;;21.90;65.40;;;;;;6090904;22;94419;-91
2023/08/04 06:18:32;;;;;;;2.63;1.95;;;21.90;65.60;;;;;;6091473;23;93176;-90
2023/08/04 06:20:57;;;;;;;3.85;1.92;;;21.90;65.80;;;;;;6090855;23;92192;-91
2023/08/04 06:23:23;;;;;;;7.63;2.00;;;22.00;65.80;;;;;;6089226;23;95564;-91
2023/08/04 06:25:49;;;;;;;5.50;2.30;;;22.00;65.70;;;;;;6088466;23;95213;-90
2023/08/04 06:28:15;;;;;;;3.70;2.03;;;22.00;66.00;;;;;;6092131;23;92440;-93
2023/08/04 06:30:41;;;;;;;3.58;2.15;;;22.00;66.10;;;;;;6093202;22;92380;-93
2023/08/04 06:33:07;;;;;;;3.17;1.80;;;22.10;66.10;;;;;;6116991;23;93048;-91
2023/08/04 06:37:58;;;;;;;2.92;1.65;;;22.00;66.10;;;;;;6067863;23;92185;-91
2023/08/04 06:40:25;;;;;;;4.43;2.53;;;22.00;66.30;;;;;;6118960;22;92885;-90
2023/08/04 06:42:52;;;;;;;3.00;1.88;;;22.00;66.60;;;;;;6116775;23;96881;-93
2023/08/04 06:45:18;;;;;;;4.57;2.30;;;22.00;66.80;;;;;;6117732;23;96683;-92
2023/08/04 06:47:43;;;;;;;2.05;1.85;;;22.00;66.70;;;;;;6092831;23;92184;-90
2023/08/04 06:50:12;;;;;;;3.90;1.92;;;22.10;66.80;;;;;;6088727;23;92307;-91
2023/08/04 06:52:38;;;;;;;2.45;1.80;;;22.10;67.20;;;;;;6091466;23;95643;-89
2023/08/04 06:55:04;;;;;;;2.03;1.55;;;22.10;66.50;;;;;;6091718;22;93488;-91
2023/08/04 06:57:29;;;;;;;5.57;2.17;;;22.10;66.50;;;;;;6089117;23;92392;-90
2023/08/04 06:59:55;;;;;;;5.40;2.58;;;22.10;66.60;;;;;;6091203;23;91420;-90
2023/08/04 07:02:22;;;;;;;21.63;4.75;;;22.10;66.50;;;;;;6116022;23;92708;-89
2023/08/04 07:04:48;;;;;;;17.58;5.35;;;22.20;66.30;;;;;;6089859;23;95076;-90
2023/08/04 07:07:13;;;;;;;12.98;5.30;;;22.30;66.40;;;;;;6086937;23;93247;-89
2023/08/04 07:09:39;;;;;;;17.67;4.45;;;22.20;66.50;;;;;;6116197;23;91992;-88
2023/08/04 07:12:05;;;;;;;16.60;4.40;;;22.30;66.40;;;;;;6089001;23;95151;-89
2023/08/04 07:14:31;;;;;;;14.20;4.78;;;22.30;66.60;;;;;;6087550;23;94743;-89
2023/08/04 07:16:57;;;;;;;22.83;5.03;;;22.20;66.50;;;;;;6089161;23;92006;-90
2023/08/04 07:19:22;;;;;;;20.77;5.78;;;22.20;66.40;;;;;;6115987;23;92496;-90
2023/08/04 07:21:48;;;;;;;19.75;5.68;;;22.20;66.70;;;;;;6090515;23;95373;-89
2023/08/04 07:24:14;;;;;;;17.02;5.65;;;22.20;66.60;;;;;;6088419;23;94393;-88
2023/08/04 07:26:39;;;;;;;16.27;5.25;;;22.20;66.60;;;;;;6114944;23;92398;-92
2023/08/04 07:29:05;;;;;;;17.83;6.07;;;22.20;67.20;;;;;;6090690;23;91865;-91
2023/08/04 07:31:33;;;;;;;16.80;6.22;;;22.20;66.30;;;;;;6115349;22;93949;-92
2023/08/04 07:34:04;;;;;;;12.40;4.50;;;22.20;66.60;;;;;;6093678;23;94836;-96
2023/08/04 07:36:30;;;;;;;16.80;5.40;;;22.30;65.00;;;;;;6095920;23;92380;-93
2023/08/04 07:38:56;;;;;;;19.52;6.28;;;22.20;65.60;;;;;;6091863;23;91912;-91
2023/08/04 07:41:24;;;;;;;16.20;5.53;;;22.20;66.10;;;;;;6090534;23;93817;-93
2023/08/04 07:43:50;;;;;;;16.80;5.68;;;22.20;66.20;;;;;;6090982;23;94007;-91
2023/08/04 07:46:27;;;;;;;17.25;5.40;;;22.20;66.30;;;;;;6093956;23;92139;-89
2023/08/04 07:48:53;;;;;;;17.77;5.53;;;22.20;66.20;;;;;;6091731;23;92027;-90
2023/08/04 07:51:19;;;;;;;17.77;6.18;;;22.30;66.30;;;;;;6093289;23;94356;-93
2023/08/04 07:53:45;;;;;;;15.10;5.60;;;22.20;66.50;;;;;;6091755;23;94241;-94
2023/08/04 07:56:11;;;;;;;15.48;5.07;;;22.20;66.90;;;;;;6118786;23;93224;-93
2023/08/04 07:58:37;;;;;;;17.33;4.90;;;22.40;66.70;;;;;;6124110;23;92171;-90
2023/08/04 08:01:06;;;;;;;17.35;5.45;;;22.40;67.50;;;;;;6093962;23;94275;-90
2023/08/04 08:03:33;;;;;;;20.17;5.40;;;22.50;67.20;;;;;;6117692;23;92747;-92
2023/08/04 08:05:59;;;;;;;18.13;5.28;;;22.50;67.20;;;;;;6119000;23;92085;-91
2023/08/04 08:08:26;;;;;;;17.90;5.13;;;22.40;67.50;;;;;;6092313;23;92704;-92
2023/08/04 08:10:52;;;;;;;20.20;4.70;;;22.40;67.50;;;;;;6092140;23;96103;-93
2023/08/04 08:13:18;;;;;;;14.40;4.95;;;22.40;68.00;;;;;;6118369;23;91412;-91
2023/08/04 08:15:44;;;;;;;16.20;5.43;;;22.40;68.00;;;;;;6092285;23;92387;-92
2023/08/04 08:18:09;;;;;;;15.82;4.80;;;22.40;67.70;;;;;;6117946;23;92123;-91
2023/08/04 08:20:39;;;;;;;16.60;4.35;;;22.30;68.00;;;;;;6116948;22;94111;-91
2023/08/04 08:23:05;;;;;;;11.02;4.00;;;22.30;68.20;;;;;;6116735;23;93966;-92
2023/08/04 08:25:31;;;;;;;14.38;4.72;;;22.30;68.00;;;;;;6117391;23;92026;-89
2023/08/04 08:28:33;;;;;;;11.90;4.97;;;22.40;68.00;;;;;;6096262;23;92566;-95
2023/08/04 08:31:20;;;;;;;12.45;4.00;;;22.50;68.20;;;;;;6031739;23;93371;-93
2023/08/04 08:34:28;;;;;;;14.25;5.15;;;22.50;68.40;;;;;;6119718;23;95306;-94
2023/08/04 08:36:58;;;;;;;9.13;4.78;;;22.50;68.60;;;;;;6149523;23;92008;-94
2023/08/04 08:39:56;;;;;;;16.33;4.82;;;22.50;69.50;;;;;;6142071;22;91131;-95
2023/08/04 08:42:22;;;;;;;16.25;4.40;;;22.50;70.40;;;;;;6120703;22;99432;-95
2023/08/04 08:45:21;;;;;;;14.45;5.05;;;22.40;70.70;;;;;;6128194;23;95525;-93
2023/08/04 08:48:48;;;;;;;17.07;4.67;;;22.40;70.60;;;;;;6150503;23;93533;-95
2023/08/04 08:52:04;;;;;;;12.35;4.32;;;22.50;70.60;;;;;;6149315;22;92489;-96
2023/08/04 08:55:48;;;;;;;24.67;5.80;;;22.60;70.40;;;;;;6097910;23;96147;-93
2023/08/04 09:02:51;;;;;;;21.02;5.22;;;22.80;70.50;;;;;;6069516;23;91349;-95
2023/08/04 09:05:26;;;;;;;14.88;4.22;;;22.90;69.10;;;;;;6065345;23;92000;-93
2023/08/04 09:08:17;;;;;;;14.20;3.63;;;22.80;66.40;;;;;;6068667;23;93977;-95
2023/08/04 09:10:44;;;;;;;8.77;3.65;;;22.80;67.20;;;;;;6073905;23;93745;-95
2023/08/04 09:13:51;;;;;;;9.75;4.32;;;22.90;67.80;;;;;;6103887;22;93275;-95
2023/08/04 09:16:43;;;;;;;16.87;5.30;;;22.90;67.10;;;;;;6170006;22;91927;-96
2023/08/04 09:19:51;;;;;;;18.55;6.15;;;23.00;66.60;;;;;;6174011;22;95067;-93
2023/08/04 09:22:24;;;;;;;19.35;5.65;;;23.00;65.50;;;;;;6018902;23;98006;-96
2023/08/04 09:24:55;;;;;;;22.67;6.47;;;23.00;65.50;;;;;;6007536;23;91831;-95
2023/08/04 09:27:30;;;;;;;15.80;5.57;;;23.10;65.50;;;;;;6117603;22;93951;-95
2023/08/04 09:30:39;;;;;;;25.73;6.40;;;23.20;65.40;;;;;;6151800;22;94559;-93
2023/08/04 09:33:11;;;;;;;;;;;23.20;64.90;;;;;;6134512;22;94072;-95
2023/08/04 09:35:38;;;;;;;16.08;5.07;;;23.30;65.00;;;;;;6176571;22;91497;-94
2023/08/04 09:38:04;;;;;;;34.95;8.32;;;23.20;64.60;;;;;;6129416;22;91022;-96
2023/08/04 09:40:37;;;;;;;18.65;5.45;;;23.20;64.80;;;;;;6105493;22;96163;-95
2023/08/04 09:43:20;;;;;;;18.98;5.88;;;23.20;64.50;;;;;;6129733;22;95370;-95
2023/08/04 09:45:46;;;;;;;21.20;6.40;;;23.10;64.30;;;;;;6153711;22;93728;-95
2023/08/04 09:48:16;;;;;;;16.98;6.47;;;23.10;65.10;;;;;;6082406;22;94625;-96
2023/08/04 09:54:01;;;;;;;23.55;6.43;;;23.10;65.10;;;;;;6115776;23;92049;-96
2023/08/04 09:56:28;;;;;;;16.98;6.65;;;23.00;65.10;;;;;;6106185;23;91969;-93
2023/08/04 09:58:54;;;;;;;20.30;6.28;;;23.00;65.40;;;;;;6114779;23;92258;-93
2023/08/04 10:01:21;;;;;;;25.25;7.03;;;23.00;65.20;;;;;;6086069;23;91737;-94
2023/08/04 10:03:57;;;;;;;21.92;5.60;;;23.00;65.40;;;;;;6141805;23;91619;-93
2023/08/04 10:06:33;;;;;;;21.85;6.13;;;23.00;65.40;;;;;;6112805;23;91395;-92
2023/08/04 10:09:02;;;;;;;17.75;5.97;;;23.00;65.60;;;;;;6084336;23;91883;-95
2023/08/04 10:11:28;;;;;;;25.38;7.03;;;23.00;66.30;;;;;;6127177;22;93848;-95
2023/08/04 10:13:56;;;;;;;21.90;6.65;;;23.10;66.40;;;;;;6101165;23;95536;-96
2023/08/04 10:16:26;;;;;;;18.43;6.40;;;23.00;66.60;;;;;;6106540;23;92356;-94
2023/08/04 10:19:09;;;;;;;19.70;6.25;;;23.00;66.70;;;;;;6104853;23;92398;-93
2023/08/04 10:21:45;;;;;;;19.67;6.40;;;22.90;66.90;;;;;;6111747;23;93984;-93
2023/08/04 10:24:20;;;;;;;21.48;6.43;;;23.00;66.40;;;;;;6139864;23;92519;-92
2023/08/04 10:26:53;;;;;;;21.17;5.80;;;23.00;67.10;;;;;;6141487;23;92742;-94
2023/08/04 10:29:30;;;;;;;21.05;6.70;;;22.90;67.30;;;;;;6116046;23;91426;-92
2023/08/04 10:32:13;;;;;;;18.77;5.57;;;22.90;67.30;;;;;;6091675;23;93153;-92
2023/08/04 10:34:55;;;;;;;;;;;;;;;;;;;;;
2023/08/04 10:37:27;;;;;;;19.20;5.70;;;23.00;67.40;;;;;;6113371;23;93989;-93
2023/08/04 10:40:08;;;;;;;22.88;6.47;;;23.10;67.40;;;;;;6120043;23;92067;-93
2023/08/04 10:43:05;;;;;;;16.38;6.45;;;23.10;67.30;;;;;;6124897;22;96180;-94
2023/08/04 10:46:05;;;;;;;18.27;5.70;;;23.10;67.10;;;;;;6136719;23;98024;-94
2023/08/04 10:48:36;;;;;;;15.95;6.15;;;23.10;67.40;;;;;;6101094;23;91950;-94
2023/08/04 10:51:02;;;;;;;15.05;5.30;;;23.20;67.30;;;;;;6079996;23;91695;-92
2023/08/04 10:53:28;;;;;;;20.52;6.47;;;23.20;65.80;;;;;;6094900;23;94345;-92
2023/08/04 10:55:57;;;;;;;21.77;6.70;;;23.20;66.90;;;;;;6086502;23;94679;-89
2023/08/04 10:58:24;;;;;;;20.83;6.55;;;23.10;67.30;;;;;;6087631;23;92995;-89
2023/08/04 11:00:55;;;;;;;18.00;5.60;;;23.00;67.60;;;;;;6086469;22;92387;-89
2023/08/04 11:03:36;;;;;;;20.05;6.38;;;22.90;67.80;;;;;;6084892;23;96231;-90
2023/08/04 11:06:03;;;;;;;23.27;5.97;;;22.90;68.00;;;;;;6085236;23;96228;-86
2023/08/04 11:08:29;;;;;;;12.40;5.57;;;22.90;68.10;;;;;;6114088;23;92502;-91
2023/08/04 11:10:57;;;;;;;23.77;6.20;;;22.90;68.20;;;;;;6086610;23;92366;-90
2023/08/04 11:13:24;;;;;;;15.13;4.90;;;22.90;67.80;;;;;;6084434;23;94372;-87
2023/08/04 11:15:53;;;;;;;17.70;5.65;;;22.90;67.70;;;;;;6087756;23;92584;-88
2023/08/04 11:18:29;;;;;;;20.05;5.78;;;22.90;67.80;;;;;;6087170;23;92552;-90
2023/08/04 11:20:59;;;;;;;11.32;5.10;;;22.90;67.70;;;;;;6087224;23;91727;-89
2023/08/04 11:23:27;;;;;;;14.18;5.28;;;22.90;67.60;;;;;;6112320;23;93077;-90
2023/08/04 11:25:53;;;;;;;14.25;4.78;;;22.90;67.60;;;;;;6085850;23;95545;-91
2023/08/04 11:28:20;;;;;;;12.30;5.22;;;22.90;67.60;;;;;;6086809;23;93476;-91
2023/08/04 11:30:46;;;;;;;22.85;5.43;;;22.90;67.60;;;;;;6088283;22;92413;-90
2023/08/04 11:33:13;;;;;;;12.55;5.78;;;22.90;67.50;;;;;;6088504;23;95903;-89
2023/08/04 11:35:39;;;;;;;13.48;4.75;;;22.90;67.40;;;;;;6114594;23;92970;-90
2023/08/04 11:38:04;;;;;;;9.35;5.28;;;22.90;67.40;;;;;;6086944;23;92529;-89
2023/08/04 11:40:30;;;;;;;9.27;4.82;;;22.80;67.40;;;;;;6086837;22;92577;-89
2023/08/04 11:43:00;;;;;;;11.65;5.18;;;22.90;67.70;;;;;;6087945;23;93941;-90
2023/08/04 11:45:31;;;;;;;12.70;4.28;;;22.80;67.20;;;;;;6114039;23;93422;-89
2023/08/04 11:48:00;;;;;;;12.68;5.18;;;22.80;67.20;;;;;;6115995;23;92202;-89
2023/08/04 11:50:26;;;;;;;15.43;5.15;;;22.90;67.10;;;;;;6114471;23;92704;-90
2023/08/04 11:52:52;;;;;;;13.75;5.28;;;22.90;67.20;;;;;;6114104;22;94347;-92
2023/08/04 11:55:18;;;;;;;10.55;4.85;;;22.80;67.20;;;;;;6088240;23;96003;-90
2023/08/04 11:57:54;;;;;;;15.05;5.65;;;22.80;67.20;;;;;;6116708;23;92657;-91
2023/08/04 12:00:36;;;;;;;11.98;4.57;;;22.90;67.20;;;;;;6088818;23;92162;-90
2023/08/04 12:03:04;;;;;;;13.43;5.20;;;22.80;67.30;;;;;;6088845;23;95544;-91
2023/08/04 12:05:36;;;;;;;13.23;4.93;;;22.90;67.20;;;;;;6088831;23;94900;-91
2023/08/04 12:08:14;;;;;;;13.15;5.20;;;22.80;67.30;;;;;;6115847;23;92144;-91
2023/08/04 12:10:41;;;;;;;8.47;4.57;;;22.80;67.10;;;;;;6089959;22;91366;-88
2023/08/04 12:13:07;;;;;;;10.80;4.63;;;22.80;66.90;;;;;;6088873;23;95262;-90
2023/08/04 12:15:52;;;;;;;13.38;4.38;;;22.80;67.00;;;;;;6090136;23;95264;-89
2023/08/04 12:18:25;;;;;;;6.65;4.10;;;22.80;66.90;;;;;;6087059;23;93710;-90
2023/08/04 12:20:51;;;;;;;10.50;4.88;;;22.80;67.30;;;;;;6086029;22;92408;-89
2023/08/04 12:23:16;;;;;;;10.18;4.60;;;22.80;67.00;;;;;;6089057;23;95698;-90
2023/08/04 12:25:42;;;;;;;10.18;4.57;;;22.80;66.70;;;;;;6115207;23;92442;-91
2023/08/04 12:28:07;;;;;;;9.30;4.60;;;22.80;66.90;;;;;;6088184;22;92365;-89
2023/08/04 12:30:33;;;;;;;9.65;4.63;;;22.80;66.90;;;;;;6088630;23;91904;-91
2023/08/04 12:32:59;;;;;;;8.50;4.75;;;22.80;66.70;;;;;;6113934;23;93171;-89
2023/08/04 12:35:24;;;;;;;7.75;3.80;;;22.80;66.90;;;;;;6087835;23;94891;-92
2023/08/04 12:37:52;;;;;;;7.50;3.97;;;22.80;66.70;;;;;;6115395;23;92181;-89
2023/08/04 12:40:18;;;;;;;6.93;4.00;;;22.80;67.60;;;;;;6090484;23;92291;-93
2023/08/04 12:42:43;;;;;;;7.10;3.90;;;22.80;66.70;;;;;;6094314;23;95379;-93
2023/08/04 12:45:09;;;;;;;8.25;4.07;;;22.80;66.60;;;;;;6117223;23;93742;-90
2023/08/04 12:47:35;;;;;;;12.82;4.80;;;22.80;66.50;;;;;;6089781;23;92731;-91
2023/08/04 12:50:00;;;;;;;6.35;3.75;;;22.90;66.50;;;;;;6112210;23;92344;-91
2023/08/04 12:52:26;;;;;;;8.73;4.13;;;22.90;66.30;;;;;;6087863;23;94767;-91
2023/08/04 12:54:52;;;;;;;10.25;4.13;;;22.90;66.50;;;;;;6118020;23;93087;-90
2023/08/04 12:57:17;;;;;;;12.43;4.82;;;22.90;66.70;;;;;;6089359;23;92298;-89
2023/08/04 12:59:43;;;;;;;12.45;4.78;;;22.90;66.70;;;;;;6118136;23;91485;-89
2023/08/04 13:02:09;;;;;;;23.98;7.35;;;22.90;66.90;;;;;;6116139;22;93355;-91